sensor_id;sensor_type;location;lat;lon;timestamp;pressure;altitude;pressure_sealevel;temperature;humidity
11605;BME280;5858;43.076;25.626;2023-05-09T00:01:10;99659.94;;;12.37;100.00
11605;BME280;5858;43.076;25.626;2023-05-09T00:03:37;99697.19;;;12.76;100.00
11605;BME280;5858;43.076;25.626;2023-05-09T00:06:04;99606.81;;;12.17;100.00
11605;BME280;5858;43.076;25.626;2023-05-09T00:08:34;99607.78;;;11.95;100.00
11605;BME280;5858;43.076;25.626;2023-05-09T00:11:02;99689.53;;;12.43;100.00
11605;BME280;5858;43.076;25.626;2023-05-09T00:13:32;99713.59;;;12.66;100.00
11605;BME280;5858;43.076;25.626;2023-05-09T00:15:59;99610.81;;;12.07;100.00
11605;BME280;5858;43.076;25.626;2023-05-09T00:18:31;99706.84;;;12.55;100.00
11605;BME280;5858;43.076;25.626;2023-05-09T00:21:01;99636.81;;;12.21;100.00
11605;BME280;5858;43.076;25.626;2023-05-09T00:23:30;99716.09;;;12.68;100.00
11605;BME280;5858;43.076;25.626;2023-05-09T00:25:57;99727.75;;;12.75;100.00
11605;BME280;5858;43.076;25.626;2023-05-09T00:28:27;99666.31;;;12.36;100.00
11605;BME280;5858;43.076;25.626;2023-05-09T00:30:54;99685.00;;;12.44;100.00
11605;BME280;5858;43.076;25.626;2023-05-09T00:33:21;99698.25;;;12.45;100.00
11605;BME280;5858;43.076;25.626;2023-05-09T00:35:53;99632.28;;;11.92;100.00
11605;BME280;5858;43.076;25.626;2023-05-09T00:38:20;99680.66;;;12.28;100.00
11605;BME280;5858;43.076;25.626;2023-05-09T00:40:48;99631.25;;;11.93;100.00
11605;BME280;5858;43.076;25.626;2023-05-09T00:43:15;99708.25;;;12.37;100.00
11605;BME280;5858;43.076;25.626;2023-05-09T00:45:42;99716.75;;;12.55;100.00
11605;BME280;5858;43.076;25.626;2023-05-09T00:48:10;99596.13;;;11.88;100.00
11605;BME280;5858;43.076;25.626;2023-05-09T00:50:37;99663.53;;;12.29;100.00
11605;BME280;5858;43.076;25.626;2023-05-09T00:53:09;99642.09;;;12.00;100.00
11605;BME280;5858;43.076;25.626;2023-05-09T00:55:36;99686.75;;;12.51;100.00
11605;BME280;5858;43.076;25.626;2023-05-09T00:58:03;99706.03;;;12.40;100.00
11605;BME280;5858;43.076;25.626;2023-05-09T01:00:30;99595.28;;;11.87;100.00
11605;BME280;5858;43.076;25.626;2023-05-09T01:02:57;99609.25;;;11.97;100.00
11605;BME280;5858;43.076;25.626;2023-05-09T01:05:27;99642.34;;;12.19;100.00
11605;BME280;5858;43.076;25.626;2023-05-09T01:08:01;99725.00;;;12.53;100.00
11605;BME280;5858;43.076;25.626;2023-05-09T01:10:38;99690.94;;;12.39;100.00
11605;BME280;5858;43.076;25.626;2023-05-09T01:13:14;99596.53;;;11.77;100.00
11605;BME280;5858;43.076;25.626;2023-05-09T01:15:49;99694.53;;;12.46;100.00
11605;BME280;5858;43.076;25.626;2023-05-09T01:18:23;99682.31;;;12.29;100.00
11605;BME280;5858;43.076;25.626;2023-05-09T01:20:57;99722.88;;;12.49;100.00
11605;BME280;5858;43.076;25.626;2023-05-09T01:24:07;99714.91;;;12.41;100.00
11605;BME280;5858;43.076;25.626;2023-05-09T01:26:50;99690.72;;;12.26;100.00
11605;BME280;5858;43.076;25.626;2023-05-09T01:29:33;99696.88;;;12.35;100.00
11605;BME280;5858;43.076;25.626;2023-05-09T01:32:03;99676.59;;;12.17;100.00
11605;BME280;5858;43.076;25.626;2023-05-09T01:34:37;99678.25;;;12.18;100.00
11605;BME280;5858;43.076;25.626;2023-05-09T01:37:06;99702.59;;;12.32;100.00
11605;BME280;5858;43.076;25.626;2023-05-09T01:39:37;99685.56;;;12.24;100.00
11605;BME280;5858;43.076;25.626;2023-05-09T01:42:07;99721.38;;;12.32;100.00
11605;BME280;5858;43.076;25.626;2023-05-09T01:44:38;99633.22;;;11.76;100.00
11605;BME280;5858;43.076;25.626;2023-05-09T01:47:07;99640.88;;;11.64;100.00
11605;BME280;5858;43.076;25.626;2023-05-09T01:49:36;99626.56;;;11.57;100.00
11605;BME280;5858;43.076;25.626;2023-05-09T01:52:07;99695.25;;;11.96;100.00
11605;BME280;5858;43.076;25.626;2023-05-09T01:54:35;99628.00;;;11.45;100.00
11605;BME280;5858;43.076;25.626;2023-05-09T01:57:05;99657.41;;;11.53;100.00
11605;BME280;5858;43.076;25.626;2023-05-09T01:59:34;99668.06;;;11.61;100.00
11605;BME280;5858;43.076;25.626;2023-05-09T02:02:03;99640.81;;;11.35;100.00
11605;BME280;5858;43.076;25.626;2023-05-09T02:04:32;99618.22;;;11.15;100.00
11605;BME280;5858;43.076;25.626;2023-05-09T02:07:01;99639.03;;;11.27;100.00
11605;BME280;5858;43.076;25.626;2023-05-09T02:09:30;99689.56;;;11.53;100.00
11605;BME280;5858;43.076;25.626;2023-05-09T02:11:57;99653.25;;;11.28;100.00
11605;BME280;5858;43.076;25.626;2023-05-09T02:14:23;99675.41;;;11.45;100.00
11605;BME280;5858;43.076;25.626;2023-05-09T02:16:51;99707.09;;;11.41;100.00
11605;BME280;5858;43.076;25.626;2023-05-09T02:19:19;99732.94;;;11.57;100.00
11605;BME280;5858;43.076;25.626;2023-05-09T02:21:46;99686.81;;;11.16;100.00
11605;BME280;5858;43.076;25.626;2023-05-09T02:24:13;99682.25;;;11.01;100.00
11605;BME280;5858;43.076;25.626;2023-05-09T02:26:40;99734.19;;;11.46;100.00
11605;BME280;5858;43.076;25.626;2023-05-09T02:29:08;99657.66;;;10.98;100.00
11605;BME280;5858;43.076;25.626;2023-05-09T02:31:39;99683.06;;;11.02;100.00
11605;BME280;5858;43.076;25.626;2023-05-09T02:34:07;99728.38;;;11.34;100.00
11605;BME280;5858;43.076;25.626;2023-05-09T02:36:37;99737.25;;;11.35;100.00
11605;BME280;5858;43.076;25.626;2023-05-09T02:39:05;99675.31;;;10.84;100.00
11605;BME280;5858;43.076;25.626;2023-05-09T02:41:32;99575.41;;;10.30;100.00
11605;BME280;5858;43.076;25.626;2023-05-09T02:43:59;99725.22;;;11.08;100.00
11605;BME280;5858;43.076;25.626;2023-05-09T02:46:27;99562.63;;;10.09;100.00
11605;BME280;5858;43.076;25.626;2023-05-09T02:48:55;99677.72;;;10.71;100.00
11605;BME280;5858;43.076;25.626;2023-05-09T02:51:22;99682.97;;;10.95;100.00
11605;BME280;5858;43.076;25.626;2023-05-09T02:53:50;99738.19;;;11.19;100.00
11605;BME280;5858;43.076;25.626;2023-05-09T02:56:17;99675.53;;;10.75;100.00
11605;BME280;5858;43.076;25.626;2023-05-09T02:58:44;99706.81;;;11.05;100.00
11605;BME280;5858;43.076;25.626;2023-05-09T03:01:15;99670.00;;;10.76;100.00
11605;BME280;5858;43.076;25.626;2023-05-09T03:03:42;99742.00;;;11.02;100.00
11605;BME280;5858;43.076;25.626;2023-05-09T03:06:10;99628.59;;;10.25;100.00
11605;BME280;5858;43.076;25.626;2023-05-09T03:08:37;99676.00;;;10.47;100.00
11605;BME280;5858;43.076;25.626;2023-05-09T03:11:05;99775.63;;;11.04;100.00
11605;BME280;5858;43.076;25.626;2023-05-09T03:13:33;99771.66;;;10.92;100.00
11605;BME280;5858;43.076;25.626;2023-05-09T03:16:01;99771.13;;;10.97;100.00
11605;BME280;5858;43.076;25.626;2023-05-09T03:18:28;99785.53;;;10.96;100.00
11605;BME280;5858;43.076;25.626;2023-05-09T03:20:55;99768.31;;;10.90;100.00
11605;BME280;5858;43.076;25.626;2023-05-09T03:23:22;99763.38;;;10.71;100.00
11605;BME280;5858;43.076;25.626;2023-05-09T03:25:49;99797.25;;;10.95;100.00
11605;BME280;5858;43.076;25.626;2023-05-09T03:28:17;99788.75;;;10.83;100.00
11605;BME280;5858;43.076;25.626;2023-05-09T03:30:44;99777.41;;;10.73;100.00
11605;BME280;5858;43.076;25.626;2023-05-09T03:33:11;99785.16;;;10.60;100.00
11605;BME280;5858;43.076;25.626;2023-05-09T03:35:38;99758.72;;;10.65;100.00
11605;BME280;5858;43.076;25.626;2023-05-09T03:38:05;99811.16;;;10.82;100.00
11605;BME280;5858;43.076;25.626;2023-05-09T03:40:32;99809.16;;;10.92;100.00
11605;BME280;5858;43.076;25.626;2023-05-09T03:42:59;99818.97;;;11.00;100.00
11605;BME280;5858;43.076;25.626;2023-05-09T03:45:27;99775.44;;;10.67;100.00
11605;BME280;5858;43.076;25.626;2023-05-09T03:47:55;99768.41;;;10.66;100.00
11605;BME280;5858;43.076;25.626;2023-05-09T03:50:23;99811.47;;;10.87;100.00
11605;BME280;5858;43.076;25.626;2023-05-09T03:52:50;99710.84;;;10.23;100.00
11605;BME280;5858;43.076;25.626;2023-05-09T03:55:19;99821.88;;;10.90;100.00
11605;BME280;5858;43.076;25.626;2023-05-09T03:57:48;99777.13;;;10.60;100.00
11605;BME280;5858;43.076;25.626;2023-05-09T04:00:15;99761.28;;;10.50;100.00
11605;BME280;5858;43.076;25.626;2023-05-09T04:02:44;99814.50;;;10.92;100.00
11605;BME280;5858;43.076;25.626;2023-05-09T04:05:11;99731.22;;;10.24;100.00
11605;BME280;5858;43.076;25.626;2023-05-09T04:07:38;99757.94;;;10.40;100.00
11605;BME280;5858;43.076;25.626;2023-05-09T04:10:06;99753.59;;;10.31;100.00
11605;BME280;5858;43.076;25.626;2023-05-09T04:12:33;99802.53;;;10.64;100.00
11605;BME280;5858;43.076;25.626;2023-05-09T04:15:00;99792.19;;;10.53;100.00
11605;BME280;5858;43.076;25.626;2023-05-09T04:17:28;99843.97;;;10.76;100.00
11605;BME280;5858;43.076;25.626;2023-05-09T04:19:56;99693.84;;;9.83;100.00
11605;BME280;5858;43.076;25.626;2023-05-09T04:22:23;99776.66;;;10.48;100.00
11605;BME280;5858;43.076;25.626;2023-05-09T04:24:50;99827.25;;;10.74;100.00
11605;BME280;5858;43.076;25.626;2023-05-09T04:27:17;99776.50;;;10.50;100.00
11605;BME280;5858;43.076;25.626;2023-05-09T04:29:44;99805.25;;;10.56;100.00
11605;BME280;5858;43.076;25.626;2023-05-09T04:32:13;99708.38;;;9.81;100.00
11605;BME280;5858;43.076;25.626;2023-05-09T04:34:49;99677.81;;;9.75;100.00
11605;BME280;5858;43.076;25.626;2023-05-09T04:37:20;99809.13;;;10.45;100.00
11605;BME280;5858;43.076;25.626;2023-05-09T04:39:47;99777.50;;;10.32;100.00
11605;BME280;5858;43.076;25.626;2023-05-09T04:42:14;99818.13;;;10.52;100.00
11605;BME280;5858;43.076;25.626;2023-05-09T04:44:41;99825.13;;;10.61;100.00
11605;BME280;5858;43.076;25.626;2023-05-09T04:47:08;99741.75;;;10.09;100.00
11605;BME280;5858;43.076;25.626;2023-05-09T04:49:35;99806.91;;;10.57;100.00
11605;BME280;5858;43.076;25.626;2023-05-09T04:52:02;99790.91;;;10.24;100.00
11605;BME280;5858;43.076;25.626;2023-05-09T04:54:31;99810.94;;;10.36;100.00
11605;BME280;5858;43.076;25.626;2023-05-09T04:56:58;99731.78;;;9.62;100.00
11605;BME280;5858;43.076;25.626;2023-05-09T04:59:25;99757.97;;;9.91;100.00
11605;BME280;5858;43.076;25.626;2023-05-09T05:01:52;99707.72;;;9.62;100.00
11605;BME280;5858;43.076;25.626;2023-05-09T05:04:20;99894.69;;;10.69;100.00
11605;BME280;5858;43.076;25.626;2023-05-09T05:06:47;99648.28;;;9.20;100.00
11605;BME280;5858;43.076;25.626;2023-05-09T05:09:14;99869.31;;;10.49;100.00
11605;BME280;5858;43.076;25.626;2023-05-09T05:11:42;99769.84;;;9.81;100.00
11605;BME280;5858;43.076;25.626;2023-05-09T05:14:09;99774.19;;;9.82;100.00
11605;BME280;5858;43.076;25.626;2023-05-09T05:16:36;99876.34;;;10.42;100.00
11605;BME280;5858;43.076;25.626;2023-05-09T05:19:03;99858.25;;;10.28;100.00
11605;BME280;5858;43.076;25.626;2023-05-09T05:21:30;99872.13;;;10.31;100.00
11605;BME280;5858;43.076;25.626;2023-05-09T05:24:00;99842.53;;;10.08;100.00
11605;BME280;5858;43.076;25.626;2023-05-09T05:26:27;99866.97;;;10.30;100.00
11605;BME280;5858;43.076;25.626;2023-05-09T05:28:56;99802.09;;;9.79;100.00
11605;BME280;5858;43.076;25.626;2023-05-09T05:32:02;99745.75;;;9.40;100.00
11605;BME280;5858;43.076;25.626;2023-05-09T05:34:30;99882.69;;;10.41;100.00
11605;BME280;5858;43.076;25.626;2023-05-09T05:36:57;99816.63;;;9.85;100.00
11605;BME280;5858;43.076;25.626;2023-05-09T05:39:24;99908.09;;;10.29;100.00
11605;BME280;5858;43.076;25.626;2023-05-09T05:41:51;99856.06;;;9.99;100.00
11605;BME280;5858;43.076;25.626;2023-05-09T05:44:18;99890.53;;;10.34;100.00
11605;BME280;5858;43.076;25.626;2023-05-09T05:46:45;99862.63;;;10.21;100.00
11605;BME280;5858;43.076;25.626;2023-05-09T05:49:16;99827.47;;;9.91;100.00
11605;BME280;5858;43.076;25.626;2023-05-09T05:51:43;99829.00;;;9.94;100.00
11605;BME280;5858;43.076;25.626;2023-05-09T05:54:10;99894.84;;;10.19;100.00
11605;BME280;5858;43.076;25.626;2023-05-09T05:56:37;99904.03;;;10.17;100.00
11605;BME280;5858;43.076;25.626;2023-05-09T05:59:04;99840.00;;;9.83;100.00
11605;BME280;5858;43.076;25.626;2023-05-09T06:01:32;99767.63;;;9.35;100.00
11605;BME280;5858;43.076;25.626;2023-05-09T06:03:59;99853.19;;;9.84;100.00
11605;BME280;5858;43.076;25.626;2023-05-09T06:06:27;99817.25;;;9.54;100.00
11605;BME280;5858;43.076;25.626;2023-05-09T06:08:55;99833.81;;;9.82;100.00
11605;BME280;5858;43.076;25.626;2023-05-09T06:11:22;99822.94;;;9.59;100.00
11605;BME280;5858;43.076;25.626;2023-05-09T06:13:51;99908.22;;;10.19;100.00
11605;BME280;5858;43.076;25.626;2023-05-09T06:16:18;99873.94;;;10.06;100.00
11605;BME280;5858;43.076;25.626;2023-05-09T06:18:46;99919.63;;;10.37;100.00
11605;BME280;5858;43.076;25.626;2023-05-09T06:21:13;99831.66;;;9.86;100.00
11605;BME280;5858;43.076;25.626;2023-05-09T06:23:41;99910.41;;;10.32;100.00
11605;BME280;5858;43.076;25.626;2023-05-09T06:26:09;99908.09;;;10.45;100.00
11605;BME280;5858;43.076;25.626;2023-05-09T06:28:36;99886.34;;;10.24;100.00
11605;BME280;5858;43.076;25.626;2023-05-09T06:31:04;99922.81;;;10.41;100.00
11605;BME280;5858;43.076;25.626;2023-05-09T06:33:31;99916.13;;;10.53;100.00
11605;BME280;5858;43.076;25.626;2023-05-09T06:35:58;99890.34;;;10.12;100.00
11605;BME280;5858;43.076;25.626;2023-05-09T06:38:25;99911.09;;;10.26;100.00
11605;BME280;5858;43.076;25.626;2023-05-09T06:40:54;99850.03;;;9.81;100.00
11605;BME280;5858;43.076;25.626;2023-05-09T06:43:21;99744.41;;;9.20;100.00
11605;BME280;5858;43.076;25.626;2023-05-09T06:45:48;99893.34;;;10.17;100.00
11605;BME280;5858;43.076;25.626;2023-05-09T06:48:15;99779.69;;;9.56;100.00
11605;BME280;5858;43.076;25.626;2023-05-09T06:50:42;99789.72;;;9.62;100.00
11605;BME280;5858;43.076;25.626;2023-05-09T06:53:09;99907.44;;;10.43;100.00
11605;BME280;5858;43.076;25.626;2023-05-09T06:55:36;99885.19;;;10.26;100.00
11605;BME280;5858;43.076;25.626;2023-05-09T06:58:04;99938.88;;;10.41;100.00
11605;BME280;5858;43.076;25.626;2023-05-09T07:00:35;99851.22;;;10.02;100.00
11605;BME280;5858;43.076;25.626;2023-05-09T07:03:02;99895.69;;;10.36;100.00
11605;BME280;5858;43.076;25.626;2023-05-09T07:05:31;99857.94;;;10.23;100.00
11605;BME280;5858;43.076;25.626;2023-05-09T07:07:58;99893.88;;;10.45;100.00
11605;BME280;5858;43.076;25.626;2023-05-09T07:10:25;99899.75;;;10.48;100.00
11605;BME280;5858;43.076;25.626;2023-05-09T07:12:52;99921.13;;;10.56;100.00
11605;BME280;5858;43.076;25.626;2023-05-09T07:15:22;99784.38;;;9.78;100.00
11605;BME280;5858;43.076;25.626;2023-05-09T07:17:49;99766.84;;;9.59;100.00
11605;BME280;5858;43.076;25.626;2023-05-09T07:20:19;99930.31;;;10.62;100.00
11605;BME280;5858;43.076;25.626;2023-05-09T07:22:49;99868.28;;;10.26;100.00
11605;BME280;5858;43.076;25.626;2023-05-09T07:25:17;99884.53;;;10.40;100.00
11605;BME280;5858;43.076;25.626;2023-05-09T07:27:43;99887.00;;;10.34;100.00
11605;BME280;5858;43.076;25.626;2023-05-09T07:30:11;99871.47;;;10.54;100.00
11605;BME280;5858;43.076;25.626;2023-05-09T07:32:40;99930.31;;;10.78;100.00
11605;BME280;5858;43.076;25.626;2023-05-09T07:35:07;99927.13;;;10.83;100.00
11605;BME280;5858;43.076;25.626;2023-05-09T07:37:34;99919.28;;;10.73;100.00
11605;BME280;5858;43.076;25.626;2023-05-09T07:40:02;99907.72;;;10.72;100.00
11605;BME280;5858;43.076;25.626;2023-05-09T07:42:30;99911.06;;;10.83;100.00
11605;BME280;5858;43.076;25.626;2023-05-09T07:44:58;99901.03;;;10.77;100.00
11605;BME280;5858;43.076;25.626;2023-05-09T07:47:25;99865.28;;;10.45;100.00
11605;BME280;5858;43.076;25.626;2023-05-09T07:49:54;99877.00;;;10.44;100.00
11605;BME280;5858;43.076;25.626;2023-05-09T07:52:24;99889.66;;;10.75;100.00
11605;BME280;5858;43.076;25.626;2023-05-09T07:54:51;99872.28;;;10.62;100.00
11605;BME280;5858;43.076;25.626;2023-05-09T07:57:19;99837.69;;;10.36;100.00
11605;BME280;5858;43.076;25.626;2023-05-09T07:59:46;99883.78;;;10.79;100.00
11605;BME280;5858;43.076;25.626;2023-05-09T08:02:13;99880.81;;;10.66;100.00
11605;BME280;5858;43.076;25.626;2023-05-09T08:04:40;99927.13;;;10.91;100.00
11605;BME280;5858;43.076;25.626;2023-05-09T08:07:09;99930.13;;;10.96;100.00
11605;BME280;5858;43.076;25.626;2023-05-09T08:09:36;99937.25;;;11.20;100.00
11605;BME280;5858;43.076;25.626;2023-05-09T08:12:04;99939.22;;;11.34;100.00
11605;BME280;5858;43.076;25.626;2023-05-09T08:14:31;99897.34;;;10.94;100.00
11605;BME280;5858;43.076;25.626;2023-05-09T08:16:58;99776.69;;;10.16;100.00
11605;BME280;5858;43.076;25.626;2023-05-09T08:19:25;99937.41;;;11.26;100.00
11605;BME280;5858;43.076;25.626;2023-05-09T08:21:52;99839.47;;;10.77;100.00
11605;BME280;5858;43.076;25.626;2023-05-09T08:24:21;99945.09;;;11.38;100.00
11605;BME280;5858;43.076;25.626;2023-05-09T08:26:48;99892.09;;;11.09;100.00
11605;BME280;5858;43.076;25.626;2023-05-09T08:29:15;99865.34;;;11.00;100.00
11605;BME280;5858;43.076;25.626;2023-05-09T08:31:42;99859.75;;;11.18;100.00
11605;BME280;5858;43.076;25.626;2023-05-09T08:34:09;99932.94;;;11.58;100.00
11605;BME280;5858;43.076;25.626;2023-05-09T08:36:36;99858.38;;;11.22;100.00
11605;BME280;5858;43.076;25.626;2023-05-09T08:39:08;99821.19;;;10.96;100.00
11605;BME280;5858;43.076;25.626;2023-05-09T08:41:37;99912.22;;;11.44;100.00
11605;BME280;5858;43.076;25.626;2023-05-09T08:44:05;99951.44;;;11.76;100.00
11605;BME280;5858;43.076;25.626;2023-05-09T08:46:41;99829.94;;;10.74;100.00
11605;BME280;5858;43.076;25.626;2023-05-09T08:49:10;99887.81;;;11.30;100.00
11605;BME280;5858;43.076;25.626;2023-05-09T08:51:38;99952.63;;;11.73;100.00
11605;BME280;5858;43.076;25.626;2023-05-09T08:54:05;99916.72;;;11.51;99.83
11605;BME280;5858;43.076;25.626;2023-05-09T08:56:33;99867.25;;;11.23;99.93
11605;BME280;5858;43.076;25.626;2023-05-09T08:59:03;99831.19;;;11.02;99.93
11605;BME280;5858;43.076;25.626;2023-05-09T09:01:32;99822.53;;;10.84;100.00
11605;BME280;5858;43.076;25.626;2023-05-09T09:04:00;99938.53;;;11.79;100.00
11605;BME280;5858;43.076;25.626;2023-05-09T09:06:27;99895.00;;;11.38;100.00
11605;BME280;5858;43.076;25.626;2023-05-09T09:08:56;99813.09;;;11.04;100.00
11605;BME280;5858;43.076;25.626;2023-05-09T09:11:24;99860.22;;;11.22;99.47
11605;BME280;5858;43.076;25.626;2023-05-09T09:13:53;99933.25;;;11.63;100.00
11605;BME280;5858;43.076;25.626;2023-05-09T09:16:24;99817.00;;;10.86;99.34
11605;BME280;5858;43.076;25.626;2023-05-09T09:18:54;99920.28;;;11.44;98.69
11605;BME280;5858;43.076;25.626;2023-05-09T09:21:21;99898.88;;;11.35;99.69
11605;BME280;5858;43.076;25.626;2023-05-09T09:23:49;99879.81;;;11.22;99.64
11605;BME280;5858;43.076;25.626;2023-05-09T09:26:18;99940.44;;;11.62;99.50
11605;BME280;5858;43.076;25.626;2023-05-09T09:28:46;99918.13;;;11.39;99.60
11605;BME280;5858;43.076;25.626;2023-05-09T09:31:25;99902.72;;;11.33;100.00
11605;BME280;5858;43.076;25.626;2023-05-09T09:33:58;99951.31;;;11.69;99.51
11605;BME280;5858;43.076;25.626;2023-05-09T09:36:26;99913.66;;;11.62;99.01
11605;BME280;5858;43.076;25.626;2023-05-09T09:38:56;99904.63;;;11.55;99.22
11605;BME280;5858;43.076;25.626;2023-05-09T09:41:34;99888.72;;;11.54;99.28
11605;BME280;5858;43.076;25.626;2023-05-09T09:44:05;99807.44;;;10.99;99.12
11605;BME280;5858;43.076;25.626;2023-05-09T09:46:42;99792.56;;;10.97;99.27
11605;BME280;5858;43.076;25.626;2023-05-09T09:49:09;99852.31;;;11.37;98.90
11605;BME280;5858;43.076;25.626;2023-05-09T09:51:36;99952.63;;;12.12;98.32
11605;BME280;5858;43.076;25.626;2023-05-09T09:54:06;99951.00;;;12.26;97.48
11605;BME280;5858;43.076;25.626;2023-05-09T09:56:40;99936.56;;;12.27;98.35
11605;BME280;5858;43.076;25.626;2023-05-09T09:59:09;99839.16;;;11.81;98.15
11605;BME280;5858;43.076;25.626;2023-05-09T10:01:53;99923.69;;;12.22;97.84
11605;BME280;5858;43.076;25.626;2023-05-09T10:04:20;99932.69;;;12.29;97.73
11605;BME280;5858;43.076;25.626;2023-05-09T10:06:51;99830.44;;;11.56;96.46
11605;BME280;5858;43.076;25.626;2023-05-09T10:09:20;99909.97;;;12.17;97.85
11605;BME280;5858;43.076;25.626;2023-05-09T10:11:49;99946.13;;;12.07;97.96
11605;BME280;5858;43.076;25.626;2023-05-09T10:14:17;99954.03;;;12.23;98.33
11605;BME280;5858;43.076;25.626;2023-05-09T10:16:48;99905.28;;;11.96;99.10
11605;BME280;5858;43.076;25.626;2023-05-09T10:19:17;99827.50;;;11.65;99.38
11605;BME280;5858;43.076;25.626;2023-05-09T10:21:49;99851.06;;;11.78;97.98
11605;BME280;5858;43.076;25.626;2023-05-09T10:24:21;99955.00;;;12.53;98.83
11605;BME280;5858;43.076;25.626;2023-05-09T10:26:58;99962.16;;;12.60;98.27
11605;BME280;5858;43.076;25.626;2023-05-09T10:29:29;99947.72;;;12.61;96.54
11605;BME280;5858;43.076;25.626;2023-05-09T10:32:04;99942.63;;;12.67;97.07
11605;BME280;5858;43.076;25.626;2023-05-09T10:34:36;99930.50;;;12.56;96.93
11605;BME280;5858;43.076;25.626;2023-05-09T10:37:05;99942.22;;;12.78;95.96
11605;BME280;5858;43.076;25.626;2023-05-09T10:39:34;99951.28;;;12.77;95.30
11605;BME280;5858;43.076;25.626;2023-05-09T10:42:02;99897.81;;;12.52;95.74
11605;BME280;5858;43.076;25.626;2023-05-09T10:44:30;99892.16;;;12.62;96.08
11605;BME280;5858;43.076;25.626;2023-05-09T10:47:00;99808.00;;;12.03;94.69
11605;BME280;5858;43.076;25.626;2023-05-09T10:49:27;99912.53;;;12.56;96.16
11605;BME280;5858;43.076;25.626;2023-05-09T10:51:55;99951.31;;;12.91;96.56
11605;BME280;5858;43.076;25.626;2023-05-09T10:54:27;99894.66;;;12.49;96.42
11605;BME280;5858;43.076;25.626;2023-05-09T10:56:54;99887.06;;;12.29;95.65
11605;BME280;5858;43.076;25.626;2023-05-09T10:59:33;99859.94;;;12.24;94.91
11605;BME280;5858;43.076;25.626;2023-05-09T11:02:02;99958.75;;;13.04;94.65
11605;BME280;5858;43.076;25.626;2023-05-09T11:04:30;99900.03;;;12.49;94.10
11605;BME280;5858;43.076;25.626;2023-05-09T11:06:58;99936.69;;;12.56;95.76
11605;BME280;5858;43.076;25.626;2023-05-09T11:09:30;99976.88;;;12.87;95.92
11605;BME280;5858;43.076;25.626;2023-05-09T11:12:13;99929.00;;;12.53;95.29
11605;BME280;5858;43.076;25.626;2023-05-09T11:14:42;99937.56;;;12.72;96.61
11605;BME280;5858;43.076;25.626;2023-05-09T11:17:12;99913.91;;;12.90;95.52
11605;BME280;5858;43.076;25.626;2023-05-09T11:19:58;99958.06;;;13.25;93.76
11605;BME280;5858;43.076;25.626;2023-05-09T11:22:27;99967.03;;;13.17;93.35
11605;BME280;5858;43.076;25.626;2023-05-09T11:25:03;99848.16;;;12.34;93.96
11605;BME280;5858;43.076;25.626;2023-05-09T11:27:38;99896.66;;;12.84;94.36
11605;BME280;5858;43.076;25.626;2023-05-09T11:33:48;99913.03;;;13.27;90.89
11605;BME280;5858;43.076;25.626;2023-05-09T11:36:27;99941.22;;;13.31;91.27
11605;BME280;5858;43.076;25.626;2023-05-09T11:39:03;99945.91;;;13.59;91.42
11605;BME280;5858;43.076;25.626;2023-05-09T11:41:37;99927.09;;;13.44;91.78
11605;BME280;5858;43.076;25.626;2023-05-09T11:44:12;99841.16;;;12.77;91.37
11605;BME280;5858;43.076;25.626;2023-05-09T11:46:39;99904.38;;;13.17;90.46
11605;BME280;5858;43.076;25.626;2023-05-09T11:49:07;99964.16;;;13.63;90.79
11605;BME280;5858;43.076;25.626;2023-05-09T11:51:35;99868.88;;;13.07;90.43
11605;BME280;5858;43.076;25.626;2023-05-09T11:54:03;99902.81;;;13.22;90.63
11605;BME280;5858;43.076;25.626;2023-05-09T11:56:31;99933.41;;;13.21;90.31
11605;BME280;5858;43.076;25.626;2023-05-09T11:58:59;99968.63;;;13.41;91.60
11605;BME280;5858;43.076;25.626;2023-05-09T12:01:28;99956.13;;;13.48;92.50
11605;BME280;5858;43.076;25.626;2023-05-09T12:03:55;99957.22;;;13.39;92.98
11605;BME280;5858;43.076;25.626;2023-05-09T12:06:24;99925.03;;;13.16;92.87
11605;BME280;5858;43.076;25.626;2023-05-09T12:08:54;99960.44;;;13.20;92.55
11605;BME280;5858;43.076;25.626;2023-05-09T12:11:23;99898.06;;;13.10;92.29
11605;BME280;5858;43.076;25.626;2023-05-09T12:13:51;99865.25;;;12.70;92.40
11605;BME280;5858;43.076;25.626;2023-05-09T12:16:19;99933.09;;;13.16;92.95
11605;BME280;5858;43.076;25.626;2023-05-09T12:18:48;99938.78;;;13.36;93.30
11605;BME280;5858;43.076;25.626;2023-05-09T12:21:16;99952.00;;;13.08;93.56
11605;BME280;5858;43.076;25.626;2023-05-09T12:23:45;99882.09;;;12.64;94.73
11605;BME280;5858;43.076;25.626;2023-05-09T12:26:16;99868.50;;;12.95;94.40
11605;BME280;5858;43.076;25.626;2023-05-09T12:28:43;99863.25;;;12.87;93.70
11605;BME280;5858;43.076;25.626;2023-05-09T12:31:10;99849.22;;;12.77;93.00
11605;BME280;5858;43.076;25.626;2023-05-09T12:33:37;99896.78;;;13.20;92.54
11605;BME280;5858;43.076;25.626;2023-05-09T12:36:07;99856.19;;;12.86;93.00
11605;BME280;5858;43.076;25.626;2023-05-09T12:38:34;99900.31;;;13.36;92.12
11605;BME280;5858;43.076;25.626;2023-05-09T12:41:07;99890.78;;;13.18;91.33
11605;BME280;5858;43.076;25.626;2023-05-09T12:43:36;99929.91;;;13.36;90.91
11605;BME280;5858;43.076;25.626;2023-05-09T12:46:04;99823.56;;;12.74;91.78
11605;BME280;5858;43.076;25.626;2023-05-09T12:48:34;99900.78;;;13.39;90.91
11605;BME280;5858;43.076;25.626;2023-05-09T12:51:03;99885.66;;;13.23;89.86
11605;BME280;5858;43.076;25.626;2023-05-09T12:53:30;99843.22;;;13.04;90.53
11605;BME280;5858;43.076;25.626;2023-05-09T12:56:01;99829.31;;;13.01;90.06
11605;BME280;5858;43.076;25.626;2023-05-09T12:58:31;99896.66;;;13.58;89.70
11605;BME280;5858;43.076;25.626;2023-05-09T13:01:02;99904.72;;;13.58;89.18
11605;BME280;5858;43.076;25.626;2023-05-09T13:03:29;99852.13;;;13.34;89.93
11605;BME280;5858;43.076;25.626;2023-05-09T13:06:03;99848.16;;;13.30;89.68
11605;BME280;5858;43.076;25.626;2023-05-09T13:08:31;99829.97;;;13.17;89.85